Terminal Aerodrome Forecast
Issued by NWS Twin Cities, MN

Home | Current Version | Previous Version | Text Only | Print | Product List | Glossary On
Versions: 1 2 3 4 5 6 7 8 9 10 11 12 13 14 15 16 17 18 19 20 21
000
FTUS43 KMPX 300128 AAA
TAFSTC
TAF AMD
KSTC 300128Z 3001/3024 21006KT P6SM VCSH SCT035
      TEMPO 3001/3003 -TSRA OVC035CB
     FM300300 VRB03KT P6SM SCT035
      TEMPO 3009/3012 4SM BR
     FM301500 36007KT P6SM SKC=

USA.gov is the U.S. government's official web portal to all federal, state and local government web resources and services.